28.5°F
Current conditions from King Hill
Updated every 5 minutes
 
  Sunday April 20, 2014

Station Historical Data
Daily Summary for May 11, 2011 Units:  Metric    English   Both
« Previous Day
Next Day »
Daily Weekly Monthly Yearly Custom
  High: Low: Average:
Temperature: 19.8 °C 5.8 °C 12.8 °C
Dew Point: 8.9 °C 3.6 °C 5.9 °C
Humidity: 87% 43% 65%
Wind Speed: 11.3km/h 1.6km/h 4.2km/h
Wind Gust: 22.5km/h - -
Wind- - ENE
Pressure: 1021.2 hPa 1018.5 hPa -
Precipitation: 0 mm    
Historical Graphs
 
 
Tabular Data for May 11, 2011
Time Temperature Dew Point Pressure Wind Wind Speed Wind Gust Humidity Daily Rainfall
00:04 9.9 °C 4.7 °C 1019.5 hPa NNE 1.6 km/h 4.8 km/h 70% 0 mm
00:09 9.6 °C 4.6 °C 1019.5 hPa Calm   4.8 km/h 71% 0 mm
00:14 9.3 °C 4.5 °C 1019.5 hPa Calm   3.2 km/h 72% 0 mm
00:19 9 °C 4.4 °C 1019.5 hPa Calm   3.2 km/h 73% 0 mm
00:24 8.8 °C 4.4 °C 1019.5 hPa Calm   1.6 km/h 74% 0 mm
00:29 8.6 °C 4.4 °C 1019.5 hPa Calm   1.6 km/h 75% 0 mm
00:34 8.3 °C 4.3 °C 1019.9 hPa Calm     76% 0 mm
00:39 8.3 °C 4.6 °C 1019.9 hPa Calm   1.6 km/h 77% 0 mm
00:44 8.3 °C 4.5 °C 1019.9 hPa Calm   1.6 km/h 77% 0 mm
00:49 8.2 °C 4.4 °C 1019.5 hPa Calm   4.8 km/h 77% 0 mm
00:54 8.1 °C 4.5 °C 1019.5 hPa Calm   4.8 km/h 78% 0 mm
00:59 7.9 °C 4.3 °C 1019.5 hPa Calm     78% 0 mm
01:04 7.8 °C 4.4 °C 1019.5 hPa Calm   1.6 km/h 79% 0 mm
01:09 7.8 °C 4.2 °C 1019.5 hPa Calm   4.8 km/h 78% 0 mm
01:14 7.7 °C 4.1 °C 1019.5 hPa Calm   4.8 km/h 78% 0 mm
01:19 7.5 °C 4.1 °C 1019.5 hPa Calm   4.8 km/h 79% 0 mm
01:24 7.2 °C 4 °C 1019.5 hPa NNE 1.6 km/h 4.8 km/h 80% 0 mm
01:29 7.2 °C 3.9 °C 1019.5 hPa Calm   4.8 km/h 80% 0 mm
01:34 7.2 °C 4.1 °C 1019.5 hPa Calm   8 km/h 81% 0 mm
01:39 7.2 °C 4.2 °C 1019.2 hPa Calm   8 km/h 81% 0 mm
01:44 7.5 °C 4.3 °C 1019.2 hPa Calm   3.2 km/h 80% 0 mm
01:49 7.8 °C 4.4 °C 1019.5 hPa Calm   3.2 km/h 79% 0 mm
01:55 8.1 °C 4.6 °C 1019.2 hPa Calm   1.6 km/h 79% 0 mm
02:04 8.3 °C 4.5 °C 1019.5 hPa Calm   3.2 km/h 77% 0 mm
02:09 8.3 °C 4.5 °C 1019.2 hPa Calm   1.6 km/h 77% 0 mm
02:14 8.2 °C 4.4 °C 1019.2 hPa Calm     77% 0 mm
02:19 7.9 °C 4.2 °C 1019.2 hPa Calm   1.6 km/h 77% 0 mm
02:24 7.8 °C 4.2 °C 1019.2 hPa Calm   3.2 km/h 78% 0 mm
02:30 7.6 °C 4.2 °C 1019.2 hPa Calm   3.2 km/h 79% 0 mm
02:35 7.4 °C 4.2 °C 1019.2 hPa Calm   3.2 km/h 80% 0 mm
02:39 7.2 °C 3.8 °C 1019.2 hPa Calm   1.6 km/h 79% 0 mm
02:44 7.1 °C 3.8 °C 1018.8 hPa Calm   3.2 km/h 80% 0 mm
02:49 7 °C 3.9 °C 1018.8 hPa Calm   3.2 km/h 81% 0 mm
02:54 6.9 °C 3.9 °C 1018.8 hPa Calm   3.2 km/h 81% 0 mm
02:59 6.8 °C 4 °C 1018.8 hPa Calm   3.2 km/h 82% 0 mm
03:04 6.8 °C 4 °C 1018.8 hPa Calm   1.6 km/h 82% 0 mm
03:09 6.9 °C 4.1 °C 1018.8 hPa Calm   1.6 km/h 82% 0 mm
03:14 6.8 °C 4 °C 1018.8 hPa Calm   3.2 km/h 82% 0 mm
03:19 6.8 °C 3.9 °C 1018.8 hPa Calm   3.2 km/h 82% 0 mm
03:24 6.7 °C 4.1 °C 1018.8 hPa Calm   3.2 km/h 83% 0 mm
03:29 6.6 °C 3.7 °C 1018.8 hPa Calm     82% 0 mm
03:34 6.6 °C 3.9 °C 1018.8 hPa Calm   1.6 km/h 83% 0 mm
03:39 6.7 °C 4 °C 1018.8 hPa Calm   8 km/h 83% 0 mm
03:44 6.8 °C 4.1 °C 1018.8 hPa Calm   8 km/h 83% 0 mm
03:49 6.9 °C 4.2 °C 1018.8 hPa Calm   8 km/h 83% 0 mm
03:54 6.9 °C 4.1 °C 1019.2 hPa Calm   3.2 km/h 82% 0 mm
03:59 6.9 °C 4.1 °C 1019.2 hPa Calm   3.2 km/h 82% 0 mm
04:04 7 °C 4.1 °C 1019.2 hPa Calm   1.6 km/h 82% 0 mm
04:09 6.8 °C 4 °C 1019.2 hPa Calm   1.6 km/h 82% 0 mm
04:14 6.7 °C 4.1 °C 1019.2 hPa Calm     83% 0 mm
04:19 6.7 °C 4 °C 1019.2 hPa Calm   1.6 km/h 83% 0 mm
04:24 6.5 °C 3.8 °C 1019.2 hPa Calm   1.6 km/h 83% 0 mm
04:29 6.4 °C 3.9 °C 1019.2 hPa Calm   1.6 km/h 84% 0 mm
04:34 6.4 °C 3.9 °C 1019.2 hPa Calm     84% 0 mm
04:39 6.3 °C 3.8 °C 1019.2 hPa Calm     84% 0 mm
04:44 6.3 °C 3.9 °C 1019.5 hPa Calm     85% 0 mm
04:49 6.2 °C 3.9 °C 1019.5 hPa Calm     85% 0 mm
04:54 6.2 °C 3.8 °C 1019.5 hPa Calm     85% 0 mm
04:59 6.1 °C 3.8 °C 1019.5 hPa Calm     85% 0 mm
05:04 6.1 °C 3.9 °C 1019.5 hPa Calm     86% 0 mm
05:09 6 °C 3.7 °C 1019.5 hPa Calm   1.6 km/h 85% 0 mm
05:14 5.9 °C 3.8 °C 1019.5 hPa Calm   1.6 km/h 86% 0 mm
05:19 5.9 °C 3.8 °C 1019.5 hPa Calm   4.8 km/h 86% 0 mm
05:24 6.2 °C 4 °C 1019.5 hPa Calm   4.8 km/h 86% 0 mm
05:29 6.2 °C 3.8 °C 1019.9 hPa Calm   3.2 km/h 85% 0 mm
05:34 6.2 °C 3.8 °C 1019.9 hPa Calm   3.2 km/h 85% 0 mm
05:39 6.1 °C 3.7 °C 1019.9 hPa Calm   3.2 km/h 85% 0 mm
05:44 6.1 °C 3.9 °C 1019.9 hPa Calm   3.2 km/h 86% 0 mm
05:49 6.1 °C 3.7 °C 1019.9 hPa Calm     85% 0 mm
05:54 5.9 °C 3.6 °C 1020.2 hPa Calm   1.6 km/h 85% 0 mm
05:59 5.9 °C 3.8 °C 1020.2 hPa Calm   3.2 km/h 86% 0 mm
06:04 5.9 °C 3.7 °C 1020.2 hPa Calm   3.2 km/h 86% 0 mm
06:09 5.8 °C 3.7 °C 1020.2 hPa Calm     86% 0 mm
06:14 5.9 °C 3.9 °C 1020.2 hPa Calm     87% 0 mm
06:19 5.9 °C 3.9 °C 1020.2 hPa Calm     87% 0 mm
06:24 5.9 °C 3.9 °C 1020.5 hPa Calm     87% 0 mm
06:29 6.1 °C 4.1 °C 1020.5 hPa Calm     87% 0 mm
06:34 6.2 °C 4.2 °C 1020.5 hPa Calm   1.6 km/h 87% 0 mm
06:39 6.2 °C 4.2 °C 1020.5 hPa Calm   1.6 km/h 87% 0 mm
06:45 6.2 °C 4.2 °C 1020.5 hPa Calm   3.2 km/h 87% 0 mm
06:54 6.7 °C 4.7 °C 1020.9 hPa Calm   6.4 km/h 87% 0 mm
06:59 7.2 °C 5 °C 1020.9 hPa Calm   6.4 km/h 86% 0 mm
07:04 7.6 °C 5 °C 1020.9 hPa Calm   1.6 km/h 84% 0 mm
07:09 8 °C 5.1 °C 1020.9 hPa SE 4.8 km/h 8 km/h 82% 0 mm
07:14 8.5 °C 5.2 °C 1020.9 hPa NNE 3.2 km/h 12.9 km/h 80% 0 mm
07:19 8.9 °C 5.4 °C 1020.9 hPa Calm   12.9 km/h 79% 0 mm
07:24 9.3 °C 5.4 °C 1020.9 hPa NE 1.6 km/h 6.4 km/h 77% 0 mm
07:29 9.7 °C 5.9 °C 1020.9 hPa NE 1.6 km/h 6.4 km/h 77% 0 mm
07:34 10.2 °C 5.7 °C 1020.9 hPa NE 4.8 km/h 12.9 km/h 74% 0 mm
07:39 10.3 °C 5.7 °C 1020.9 hPa NE 3.2 km/h 12.9 km/h 73% 0 mm
07:44 10.4 °C 5.8 °C 1020.9 hPa NNE 4.8 km/h 12.9 km/h 73% 0 mm
07:49 10.7 °C 5.8 °C 1020.9 hPa NE 3.2 km/h 12.9 km/h 72% 0 mm
07:54 10.9 °C 6.1 °C 1020.9 hPa North 1.6 km/h 12.9 km/h 72% 0 mm
07:59 11.2 °C 6.3 °C 1020.9 hPa NNE 3.2 km/h 11.3 km/h 72% 0 mm
08:04 11.3 °C 6.3 °C 1020.9 hPa Calm   12.9 km/h 71% 0 mm
08:09 11.5 °C 6 °C 1020.9 hPa NE 4.8 km/h 16.1 km/h 69% 0 mm
08:14 11.7 °C 6.2 °C 1020.9 hPa NE 3.2 km/h 16.1 km/h 69% 0 mm
08:19 11.9 °C 6.2 °C 1020.9 hPa NE 4.8 km/h 12.9 km/h 68% 0 mm
08:24 11.9 °C 5.9 °C 1020.9 hPa ENE 3.2 km/h 14.5 km/h 67% 0 mm
08:29 11.8 °C 5.9 °C 1020.9 hPa NE 6.4 km/h 16.1 km/h 67% 0 mm
08:34 12.1 °C 6.6 °C 1020.9 hPa Calm   16.1 km/h 69% 0 mm
08:39 12.4 °C 6.4 °C 1020.9 hPa NE 1.6 km/h 11.3 km/h 67% 0 mm
08:44 12.5 °C 6.3 °C 1020.9 hPa ENE 4.8 km/h 11.3 km/h 66% 0 mm
08:49 12.6 °C 6.4 °C 1020.9 hPa NNE 1.6 km/h 11.3 km/h 66% 0 mm
08:54 12.9 °C 7.1 °C 1020.9 hPa NE 1.6 km/h 14.5 km/h 68% 0 mm
08:59 12.9 °C 6.5 °C 1020.9 hPa NE 9.7 km/h 17.7 km/h 65% 0 mm
09:04 12.9 °C 6.2 °C 1020.9 hPa NNE 11.3 km/h 20.9 km/h 64% 0 mm
09:09 12.9 °C 6.4 °C 1020.9 hPa NNE 6.4 km/h 20.9 km/h 65% 0 mm
09:14 13.2 °C 6.5 °C 1020.9 hPa NE 4.8 km/h 14.5 km/h 64% 0 mm
09:19 13.3 °C 6.7 °C 1020.9 hPa East 4.8 km/h 14.5 km/h 64% 0 mm
09:24 13.5 °C 6.4 °C 1020.9 hPa NE 6.4 km/h 19.3 km/h 62% 0 mm
09:29 13.6 °C 7.2 °C 1020.5 hPa Calm   19.3 km/h 65% 0 mm
09:34 13.9 °C 6.9 °C 1020.9 hPa NNE 4.8 km/h 12.9 km/h 63% 0 mm
09:39 13.9 °C 6.8 °C 1020.5 hPa NNE 6.4 km/h 14.5 km/h 62% 0 mm
09:44 14.1 °C 6.4 °C 1020.5 hPa NNE 6.4 km/h 16.1 km/h 60% 0 mm
09:49 14.1 °C 6.7 °C 1020.9 hPa NNE 6.4 km/h 16.1 km/h 61% 0 mm
09:54 14.3 °C 6.9 °C 1020.9 hPa NNE 1.6 km/h 17.7 km/h 61% 0 mm
09:59 14.5 °C 6.8 °C 1020.9 hPa NE 6.4 km/h 17.7 km/h 60% 0 mm
10:04 14.7 °C 7.1 °C 1020.9 hPa ENE 1.6 km/h 14.5 km/h 60% 0 mm
10:09 14.8 °C 6.9 °C 1020.5 hPa NNE 9.7 km/h 16.1 km/h 59% 0 mm
10:14 15 °C 6.8 °C 1020.5 hPa NNE 6.4 km/h 16.1 km/h 58% 0 mm
10:19 15 °C 7.3 °C 1020.9 hPa North 3.2 km/h 17.7 km/h 60% 0 mm
10:24 15.2 °C 7.5 °C 1020.9 hPa ENE 6.4 km/h 17.7 km/h 60% 0 mm
10:29 15.1 °C 7.1 °C 1020.9 hPa NNE 9.7 km/h 22.5 km/h 59% 0 mm
10:34 15 °C 6.8 °C 1021.2 hPa NNE 8 km/h 22.5 km/h 58% 0 mm
10:39 15 °C 6.8 °C 1021.2 hPa NE 8 km/h 19.3 km/h 58% 0 mm
10:44 15 °C 7.8 °C 1021.2 hPa ENE 3.2 km/h 19.3 km/h 62% 0 mm
10:49 15.2 °C 7.4 °C 1021.2 hPa ENE 4.8 km/h 19.3 km/h 60% 0 mm
10:54 15.4 °C 7.2 °C 1021.2 hPa ENE 3.2 km/h 17.7 km/h 58% 0 mm
10:59 15.9 °C 8.2 °C 1021.2 hPa Calm   16.1 km/h 60% 0 mm
11:04 16.4 °C 7.3 °C 1020.9 hPa ENE 4.8 km/h 14.5 km/h 55% 0 mm
11:09 16.2 °C 7.2 °C 1021.2 hPa NE 9.7 km/h 16.1 km/h 55% 0 mm
11:14 16.3 °C 7.8 °C 1021.2 hPa NNE 1.6 km/h 16.1 km/h 57% 0 mm
11:19 16.3 °C 7.2 °C 1020.9 hPa ENE 6.4 km/h 16.1 km/h 55% 0 mm
11:24 16.3 °C 8 °C 1020.9 hPa NE 6.4 km/h 16.1 km/h 58% 0 mm
11:29 16.5 °C 7.4 °C 1020.9 hPa NNE 9.7 km/h 16.1 km/h 55% 0 mm
11:34 16.9 °C 8.9 °C 1020.9 hPa NNE 1.6 km/h 16.1 km/h 59% 0 mm
11:39 17.2 °C 7.5 °C 1020.9 hPa ESE 4.8 km/h 11.3 km/h 53% 0 mm
11:45 16.9 °C 7.6 °C 1020.5 hPa NE 4.8 km/h 16.1 km/h 54% 0 mm
11:54 16.9 °C 7.6 °C 1020.5 hPa NNE 4.8 km/h 11.3 km/h 54% 0 mm
11:59 16.4 °C 7.9 °C 1020.5 hPa NNE 1.6 km/h 11.3 km/h 57% 0 mm
12:04 16.4 °C 8.1 °C 1020.5 hPa NNW 4.8 km/h 17.7 km/h 58% 0 mm
12:09 16.2 °C 7.9 °C 1020.5 hPa NNW 6.4 km/h 17.7 km/h 58% 0 mm
12:14 16.6 °C 8.8 °C 1020.5 hPa NE 4.8 km/h 17.7 km/h 60% 0 mm
12:19 16.8 °C 8.2 °C 1020.5 hPa North 3.2 km/h 19.3 km/h 57% 0 mm
12:24 16.7 °C 8.4 °C 1020.5 hPa North 4.8 km/h 19.3 km/h 58% 0 mm
12:29 16.7 °C 7.9 °C 1020.2 hPa NNW 1.6 km/h 14.5 km/h 56% 0 mm
12:34 16.6 °C 7.8 °C 1020.2 hPa NNE 8 km/h 19.3 km/h 56% 0 mm
12:39 16.4 °C 7.9 °C 1020.2 hPa Calm   19.3 km/h 57% 0 mm
12:44 16.4 °C 7.9 °C 1020.2 hPa North 4.8 km/h 14.5 km/h 57% 0 mm
12:49 16.6 °C 8.3 °C 1020.2 hPa NNE 3.2 km/h 14.5 km/h 58% 0 mm
12:54 16.8 °C 8.2 °C 1020.2 hPa Calm   14.5 km/h 57% 0 mm
12:59 17 °C 8.4 °C 1020.2 hPa North 1.6 km/h 11.3 km/h 57% 0 mm
13:04 16.9 °C 7.6 °C 1020.2 hPa NNE 4.8 km/h 11.3 km/h 54% 0 mm
13:09 17.1 °C 8.5 °C 1020.2 hPa East 1.6 km/h 11.3 km/h 57% 0 mm
13:14 17.6 °C 8.4 °C 1019.9 hPa North 4.8 km/h 16.1 km/h 55% 0 mm
13:19 17.5 °C 8.1 °C 1019.9 hPa Calm   16.1 km/h 54% 0 mm
13:24 17.3 °C 8.2 °C 1019.9 hPa NNE 3.2 km/h 12.9 km/h 55% 0 mm
13:29 17.2 °C 7.8 °C 1019.9 hPa NE 9.7 km/h 19.3 km/h 54% 0 mm
13:34 17.1 °C 7.7 °C 1019.9 hPa NE 9.7 km/h 19.3 km/h 54% 0 mm
13:39 17.2 °C 8.4 °C 1019.5 hPa NNE 3.2 km/h 14.5 km/h 56% 0 mm
13:44 17.6 °C 8.2 °C 1019.9 hPa East 4.8 km/h 19.3 km/h 54% 0 mm
13:49 17.6 °C 8.7 °C 1019.5 hPa East 3.2 km/h 19.3 km/h 56% 0 mm
13:54 17.4 °C 8 °C 1019.5 hPa ENE 9.7 km/h 19.3 km/h 54% 0 mm
13:59 17.3 °C 8.7 °C 1019.5 hPa NNE 3.2 km/h 16.1 km/h 57% 0 mm
14:04 18.2 °C 8.2 °C 1019.5 hPa ENE 1.6 km/h 9.7 km/h 52% 0 mm
14:09 18 °C 8 °C 1019.5 hPa Calm   11.3 km/h 52% 0 mm
14:14 17.8 °C 8.3 °C 1019.5 hPa Calm   11.3 km/h 54% 0 mm
14:19 18.2 °C 8.5 °C 1019.5 hPa NNE 1.6 km/h 14.5 km/h 53% 0 mm
14:24 18.1 °C 7.8 °C 1019.5 hPa ENE 1.6 km/h 14.5 km/h 51% 0 mm
14:29 17.9 °C 8.4 °C 1019.5 hPa Calm   12.9 km/h 54% 0 mm
14:34 18.1 °C 8.1 °C 1019.2 hPa Calm   9.7 km/h 52% 0 mm
14:39 18.1 °C 8.3 °C 1019.2 hPa ENE 6.4 km/h 12.9 km/h 53% 0 mm
14:44 18.4 °C 8.1 °C 1019.2 hPa NNE 3.2 km/h 14.5 km/h 51% 0 mm
14:49 18.8 °C 8.4 °C 1019.5 hPa SE 1.6 km/h 14.5 km/h 51% 0 mm
14:54 18.3 °C 7.4 °C 1019.5 hPa East 4.8 km/h 14.5 km/h 49% 0 mm
14:59 18.2 °C 8.5 °C 1019.5 hPa NNE 3.2 km/h 12.9 km/h 53% 0 mm
15:04 18.3 °C 8 °C 1019.2 hPa NNW 6.4 km/h 16.1 km/h 51% 0 mm
15:09 18.4 °C 8.9 °C 1019.2 hPa North 3.2 km/h 16.1 km/h 54% 0 mm
15:14 19 °C 8.3 °C 1019.2 hPa NE 1.6 km/h 11.3 km/h 50% 0 mm
15:19 19.1 °C 8.1 °C 1019.2 hPa ENE 8 km/h 14.5 km/h 49% 0 mm
15:24 18.8 °C 8.2 °C 1018.8 hPa NE 4.8 km/h 14.5 km/h 50% 0 mm
15:29 18.6 °C 8 °C 1018.8 hPa NNE 1.6 km/h 14.5 km/h 50% 0 mm
15:34 18.8 °C 8.8 °C 1018.8 hPa ENE 1.6 km/h 14.5 km/h 52% 0 mm
15:39 18.9 °C 7.7 °C 1018.8 hPa NE 3.2 km/h 14.5 km/h 48% 0 mm
15:44 18.7 °C 8.1 °C 1018.8 hPa NNE 1.6 km/h 14.5 km/h 50% 0 mm
15:49 18.9 °C 8.8 °C 1018.5 hPa Calm   14.5 km/h 52% 0 mm
15:55 19.7 °C 8.1 °C 1018.5 hPa Calm   11.3 km/h 47% 0 mm
16:04 19.4 °C 7.8 °C 1018.5 hPa North 4.8 km/h 14.5 km/h 47% 0 mm
16:09 19.4 °C 8.1 °C 1018.5 hPa NE 4.8 km/h 14.5 km/h 48% 0 mm
16:14 18.9 °C 7.7 °C 1018.5 hPa ESE 1.6 km/h 12.9 km/h 48% 0 mm
16:19 19.1 °C 8.2 °C 1018.5 hPa Calm   11.3 km/h 49% 0 mm
16:24 19.5 °C 8.8 °C 1018.5 hPa North 1.6 km/h 14.5 km/h 50% 0 mm
16:29 19.6 °C 7.3 °C 1018.5 hPa NE 3.2 km/h 14.5 km/h 45% 0 mm
16:34 19.2 °C 8.2 °C 1018.5 hPa Calm   9.7 km/h 49% 0 mm
16:39 19.1 °C 7.6 °C 1018.5 hPa NE 1.6 km/h 9.7 km/h 47% 0 mm
16:44 18.9 °C 7.1 °C 1018.5 hPa NNE 3.2 km/h 14.5 km/h 46% 0 mm
16:49 18.7 °C 7.2 °C 1018.5 hPa NE 1.6 km/h 14.5 km/h 47% 0 mm
16:54 18.9 °C 6.7 °C 1018.5 hPa North 4.8 km/h 9.7 km/h 45% 0 mm
17:04 19.8 °C 7.2 °C 1018.5 hPa North 1.6 km/h 8 km/h 44% 0 mm
17:09 19.7 °C 7.1 °C 1018.5 hPa NNE 3.2 km/h 11.3 km/h 44% 0 mm
17:14 19.4 °C 6.9 °C 1018.5 hPa NE 1.6 km/h 12.9 km/h 44% 0 mm
17:19 19.2 °C 7.3 °C 1018.5 hPa North 3.2 km/h 14.5 km/h 46% 0 mm
17:24 19.3 °C 8.3 °C 1018.5 hPa North 1.6 km/h 14.5 km/h 49% 0 mm
17:29 19.5 °C 7.6 °C 1018.5 hPa NNW 3.2 km/h 14.5 km/h 46% 0 mm
17:34 19.7 °C 7.1 °C 1018.8 hPa North 4.8 km/h 14.5 km/h 44% 0 mm
17:39 19.4 °C 6.6 °C 1018.8 hPa NNE 6.4 km/h 14.5 km/h 43% 0 mm
17:44 19.2 °C 6.9 °C 1018.8 hPa NE 1.6 km/h 14.5 km/h 45% 0 mm
17:49 19 °C 6.8 °C 1018.8 hPa NNE 3.2 km/h 8 km/h 45% 0 mm
17:54 19.1 °C 6.9 °C 1018.8 hPa NNE 6.4 km/h 14.5 km/h 45% 0 mm
17:59 19.2 °C 6.3 °C 1018.8 hPa NNE 9.7 km/h 19.3 km/h 43% 0 mm
18:04 18.9 °C 6.7 °C 1018.5 hPa NE 1.6 km/h 19.3 km/h 45% 0 mm
18:09 18.7 °C 7.1 °C 1018.5 hPa NE 1.6 km/h 14.5 km/h 47% 0 mm
18:14 18.4 °C 6.6 °C 1018.5 hPa NNE 8 km/h 12.9 km/h 46% 0 mm
18:19 18.3 °C 6.8 °C 1018.5 hPa NE 4.8 km/h 12.9 km/h 47% 0 mm
18:24 18.5 °C 7.3 °C 1018.5 hPa NE 1.6 km/h 12.9 km/h 48% 0 mm
18:29 18.8 °C 6.9 °C 1018.5 hPa NE 1.6 km/h 9.7 km/h 46% 0 mm
18:34 18.8 °C 7 °C 1018.5 hPa NE 1.6 km/h 8 km/h 46% 0 mm
18:44 18.7 °C 6.5 °C 1018.5 hPa NE 6.4 km/h 11.3 km/h 45% 0 mm
18:50 18.3 °C 6.8 °C 1018.5 hPa NNE 6.4 km/h 17.7 km/h 47% 0 mm
18:55 18.1 °C 6.3 °C 1018.5 hPa Calm   17.7 km/h 46% 0 mm
19:00 18.1 °C 7.2 °C 1018.5 hPa NNE 3.2 km/h 12.9 km/h 49% 0 mm
19:05 18.2 °C 6.7 °C 1018.5 hPa NNE 3.2 km/h 12.9 km/h 47% 0 mm
19:09 18.2 °C 6.4 °C 1018.5 hPa Calm   11.3 km/h 46% 0 mm
19:14 18.1 °C 6.6 °C 1018.8 hPa NNE 4.8 km/h 9.7 km/h 47% 0 mm
19:20 17.9 °C 6.1 °C 1018.5 hPa NNE 4.8 km/h 12.9 km/h 46% 0 mm
19:25 17.7 °C 5.9 °C 1018.5 hPa Calm   12.9 km/h 46% 0 mm
19:30 17.6 °C 6.4 °C 1018.8 hPa NNE 3.2 km/h 9.7 km/h 48% 0 mm
19:35 17.3 °C 5.9 °C 1018.8 hPa NNE 3.2 km/h 9.7 km/h 47% 0 mm
19:45 17 °C 5.6 °C 1018.8 hPa NNE 4.8 km/h 9.7 km/h 47% 0 mm
19:50 16.8 °C 5.7 °C 1018.8 hPa NNE 1.6 km/h 9.7 km/h 48% 0 mm
19:55 16.5 °C 5.8 °C 1018.8 hPa NE 1.6 km/h 12.9 km/h 49% 0 mm
20:00 16.2 °C 6.1 °C 1018.8 hPa Calm   12.9 km/h 51% 0 mm
20:05 15.7 °C 6.2 °C 1018.8 hPa Calm   3.2 km/h 53% 0 mm
20:09 15 °C 6.3 °C 1018.8 hPa Calm   3.2 km/h 56% 0 mm
20:15 14.3 °C 6.2 °C 1018.8 hPa Calm     58% 0 mm
20:20 13.8 °C 6.2 °C 1018.8 hPa Calm     60% 0 mm
20:24 13.3 °C 5.7 °C 1018.8 hPa Calm   1.6 km/h 60% 0 mm
20:30 13.1 °C 5.7 °C 1018.8 hPa Calm   1.6 km/h 61% 0 mm
20:35 12.9 °C 5.8 °C 1019.2 hPa Calm     62% 0 mm
20:40 12.7 °C 5.6 °C 1018.8 hPa Calm     62% 0 mm
20:45 12.4 °C 5.6 °C 1018.8 hPa Calm   1.6 km/h 63% 0 mm
20:49 12.4 °C 5.6 °C 1018.8 hPa Calm   3.2 km/h 63% 0 mm
20:55 12.3 °C 5.7 °C 1018.8 hPa Calm   3.2 km/h 64% 0 mm
21:00 12.2 °C 5.6 °C 1018.8 hPa Calm     64% 0 mm
21:05 12.1 °C 5.4 °C 1018.8 hPa Calm   3.2 km/h 64% 0 mm
21:10 12.1 °C 5.4 °C 1018.8 hPa Calm   3.2 km/h 64% 0 mm
21:15 12 °C 5.4 °C 1018.8 hPa Calm     64% 0 mm
21:20 11.9 °C 5.3 °C 1018.8 hPa Calm     64% 0 mm
21:25 11.7 °C 5.3 °C 1018.8 hPa Calm     65% 0 mm
21:35 11.4 °C 5.3 °C 1018.8 hPa Calm     66% 0 mm
21:40 11.2 °C 4.9 °C 1018.8 hPa Calm     65% 0 mm
21:45 11.1 °C 5.2 °C 1018.8 hPa Calm     67% 0 mm
21:50 10.9 °C 4.8 °C 1018.8 hPa Calm     66% 0 mm
21:55 10.8 °C 4.9 °C 1018.8 hPa Calm     67% 0 mm
22:00 10.7 °C 4.8 °C 1018.8 hPa Calm     67% 0 mm
22:05 10.6 °C 4.9 °C 1018.8 hPa Calm     68% 0 mm
22:10 10.3 °C 4.9 °C 1018.8 hPa Calm     69% 0 mm
22:15 10.2 °C 4.5 °C 1018.8 hPa Calm     68% 0 mm
22:20 10.1 °C 4.6 °C 1018.8 hPa Calm     69% 0 mm
22:25 9.9 °C 4.5 °C 1018.8 hPa Calm     69% 0 mm
22:30 10 °C 4.8 °C 1018.8 hPa Calm     70% 0 mm
22:35 10.1 °C 4.7 °C 1018.8 hPa Calm   3.2 km/h 69% 0 mm
22:45 10.3 °C 4.6 °C 1018.5 hPa Calm   3.2 km/h 68% 0 mm
22:50 10.4 °C 4.7 °C 1018.5 hPa Calm   3.2 km/h 68% 0 mm
22:55 10.4 °C 4.7 °C 1018.5 hPa Calm   3.2 km/h 68% 0 mm
23:00 10.3 °C 4.5 °C 1018.5 hPa Calm   3.2 km/h 67% 0 mm
23:05 10.3 °C 4.4 °C 1018.5 hPa Calm   6.4 km/h 67% 0 mm
23:10 10.1 °C 4.1 °C 1018.5 hPa Calm   6.4 km/h 66% 0 mm
23:15 10.1 °C 4.4 °C 1018.5 hPa Calm   1.6 km/h 68% 0 mm
23:20 9.9 °C 4.1 °C 1018.5 hPa Calm   1.6 km/h 67% 0 mm
23:25 9.8 °C 4 °C 1018.5 hPa Calm     67% 0 mm
23:30 9.9 °C 4.1 °C 1018.5 hPa Calm     67% 0 mm
23:35 9.9 °C 3.8 °C 1018.5 hPa Calm     66% 0 mm
23:40 10 °C 3.9 °C 1018.5 hPa Calm     66% 0 mm
23:45 10.2 °C 3.9 °C 1018.5 hPa Calm     65% 0 mm
23:50 10.6 °C 3.8 °C 1018.5 hPa Calm   3.2 km/h 63% 0 mm
23:55 10.8 °C 3.8 °C 1018.5 hPa Calm   3.2 km/h 62% 0 mm
Westford Weather
Compliments of Weather Underground

 
 
Current Radar Loop:

Copyright © WestfordWeather.net 2007-2014. All rights reserved.